Time;durP1;ratioP1;P1;durP2;ratioP2;P2;SDS_P1;SDS_P2;PMS_P1;PMS_P2;Temp;Humidity;BMP_temperature;BMP_pressure;BME280_temperature;BME280_humidity;BME280_pressure;Samples;Min_cycle;Max_cycle;Signal;HPM_P1;HPM_P2
2022/05/28 00:00:56;;;;;;;13.95;1.70;;;11.10;99.90;;;;;;5051265;28;20399;-83
2022/05/28 00:03:23;;;;;;;10.07;1.70;;;11.00;99.90;;;;;;5033898;28;20083;-83
2022/05/28 00:05:49;;;;;;;13.73;1.83;;;11.00;99.90;;;;;;5051707;28;20051;-83
2022/05/28 00:08:15;;;;;;;13.43;2.22;;;11.00;99.90;;;;;;5051075;28;20048;-83
2022/05/28 00:10:42;;;;;;;13.55;2.13;;;10.90;99.90;;;;;;5071735;28;20587;-83
2022/05/28 00:13:07;;;;;;;13.45;1.65;;;10.80;99.90;;;;;;5070803;28;20036;-83
2022/05/28 00:15:33;;;;;;;9.45;1.85;;;10.80;99.90;;;;;;5054319;28;20050;-83
2022/05/28 00:17:59;;;;;;;11.98;2.00;;;10.80;99.90;;;;;;5054033;28;20130;-82
2022/05/28 00:20:26;;;;;;;15.27;1.92;;;10.80;99.90;;;;;;5070858;28;20044;-82
2022/05/28 00:22:51;;;;;;;13.30;2.03;;;10.80;99.90;;;;;;5070603;28;20377;-83
2022/05/28 00:25:18;;;;;;;16.75;2.28;;;10.80;99.90;;;;;;5070778;28;20055;-83
2022/05/28 00:27:44;;;;;;;18.27;2.00;;;10.80;99.90;;;;;;5071530;28;20099;-82
2022/05/28 00:30:12;;;;;;;13.10;2.00;;;10.50;99.90;;;;;;5069691;28;20452;-83
2022/05/28 00:32:38;;;;;;;11.95;1.60;;;10.50;99.90;;;;;;5054403;28;20051;-82
2022/05/28 00:35:05;;;;;;;12.70;1.75;;;10.40;99.90;;;;;;5053199;28;20047;-83
2022/05/28 00:37:31;;;;;;;14.07;2.13;;;10.40;99.90;;;;;;5070017;28;20100;-83
2022/05/28 00:39:57;;;;;;;9.40;1.77;;;10.40;99.90;;;;;;5054144;28;20135;-82
2022/05/28 00:42:23;;;;;;;15.35;1.77;;;10.30;99.90;;;;;;5053301;28;20055;-83
2022/05/28 00:44:49;;;;;;;13.48;1.83;;;10.40;99.90;;;;;;5070016;28;20039;-82
2022/05/28 00:47:16;;;;;;;17.92;2.00;;;10.20;99.90;;;;;;5053508;28;20112;-83
2022/05/28 00:49:43;;;;;;;12.65;1.40;;;10.30;99.90;;;;;;5053568;28;20070;-83
2022/05/28 00:52:08;;;;;;;15.40;1.85;;;10.30;99.90;;;;;;5052737;28;20538;-83
2022/05/28 00:54:40;;;;;;;13.35;2.60;;;10.20;99.90;;;;;;5053516;28;20087;-83
2022/05/28 00:57:07;;;;;;;13.43;2.33;;;10.20;99.90;;;;;;5038451;28;20044;-83
2022/05/28 00:59:33;;;;;;;12.18;2.17;;;10.40;99.90;;;;;;5067089;28;20079;-82
2022/05/28 01:02:15;;;;;;;13.57;2.20;;;10.10;99.90;;;;;;5067526;28;20050;-82
2022/05/28 01:04:46;;;;;;;12.63;1.70;;;10.10;99.90;;;;;;5033053;28;20052;-82
2022/05/28 01:07:23;;;;;;;19.70;2.88;;;10.10;99.90;;;;;;5066842;28;20066;-82
2022/05/28 01:09:54;;;;;;;17.67;2.47;;;10.10;99.90;;;;;;5033860;28;20044;-83
2022/05/28 01:12:32;;;;;;;13.48;1.70;;;10.10;99.90;;;;;;5066218;28;20099;-82
2022/05/28 01:15:08;;;;;;;12.25;2.00;;;10.10;99.90;;;;;;5067146;28;20052;-82
2022/05/28 01:17:42;;;;;;;15.50;1.98;;;10.10;99.90;;;;;;5066914;28;20089;-82
2022/05/28 01:20:18;;;;;;;8.20;1.98;;;10.10;99.90;;;;;;5032397;28;20050;-82
2022/05/28 01:23:04;;;;;;;14.05;2.22;;;10.80;99.90;;;;;;5067269;28;20051;-82
2022/05/28 01:25:50;;;;;;;19.92;2.13;;;10.10;99.90;;;;;;5066699;28;20048;-82
2022/05/28 01:28:20;;;;;;;13.05;2.30;;;10.10;99.90;;;;;;5064812;28;20041;-83
2022/05/28 01:30:48;;;;;;;12.75;1.70;;;10.20;99.90;;;;;;5050688;28;20863;-82
2022/05/28 01:33:16;;;;;;;11.35;1.98;;;10.10;99.90;;;;;;5030964;28;20037;-83
2022/05/28 01:35:44;;;;;;;14.65;2.40;;;10.10;99.90;;;;;;5050286;28;20055;-82
2022/05/28 01:38:12;;;;;;;16.23;2.33;;;10.30;99.90;;;;;;5048968;28;20127;-82
2022/05/28 01:40:40;;;;;;;27.63;2.72;;;10.20;99.90;;;;;;5049550;28;20048;-82
2022/05/28 01:43:12;;;;;;;18.58;2.55;;;10.10;99.90;;;;;;5049044;28;20048;-82
2022/05/28 01:45:41;;;;;;;17.02;2.60;;;10.50;99.90;;;;;;5033528;28;20127;-83
2022/05/28 01:48:08;;;;;;;18.10;1.92;;;10.10;99.90;;;;;;5031115;28;20621;-82
2022/05/28 01:50:43;;;;;;;14.18;2.00;;;10.10;99.90;;;;;;5066649;28;20040;-83
2022/05/28 01:53:12;;;;;;;12.27;2.75;;;10.20;99.90;;;;;;5031687;28;20060;-82
2022/05/28 01:55:42;;;;;;;16.35;2.40;;;10.20;99.90;;;;;;5049986;28;20048;-83
2022/05/28 01:58:08;;;;;;;12.02;1.95;;;10.20;99.90;;;;;;5066285;28;20408;-83
2022/05/28 02:00:34;;;;;;;21.40;2.33;;;10.10;99.90;;;;;;5066264;28;20044;-82
2022/05/28 02:03:01;;;;;;;21.33;3.00;;;10.20;99.90;;;;;;5048482;28;20041;-82
2022/05/28 02:05:27;;;;;;;10.60;2.30;;;10.80;99.90;;;;;;5033163;28;20048;-82
2022/05/28 02:07:53;;;;;;;18.23;3.15;;;10.20;99.90;;;;;;5060055;28;20085;-82
2022/05/28 02:10:22;;;;;;;15.18;2.53;;;10.30;99.90;;;;;;5036620;28;20048;-82
2022/05/28 02:13:01;;;;;;;17.90;2.45;;;10.20;99.90;;;;;;5053184;28;20040;-81
2022/05/28 02:15:31;;;;;;;21.95;3.13;;;10.10;99.90;;;;;;5052759;28;20049;-82
2022/05/28 02:18:04;;;;;;;16.48;2.20;;;10.30;99.90;;;;;;5052921;28;20102;-82
2022/05/28 02:20:36;;;;;;;12.60;1.80;;;10.00;99.90;;;;;;5053274;28;20443;-82
2022/05/28 02:23:10;;;;;;;16.25;2.13;;;10.20;99.90;;;;;;5052594;28;20052;-82
2022/05/28 02:25:51;;;;;;;17.98;2.65;;;10.20;99.90;;;;;;5036994;28;20086;-83
2022/05/28 02:28:18;;;;;;;11.27;2.47;;;9.90;99.90;;;;;;5035531;28;20044;-82
2022/05/28 02:30:47;;;;;;;16.33;3.80;;;10.20;99.90;;;;;;5053670;28;20041;-82
2022/05/28 02:33:13;;;;;;;14.93;2.15;;;9.90;99.90;;;;;;5068597;28;20036;-82
2022/05/28 02:35:39;;;;;;;14.63;2.67;;;10.00;99.90;;;;;;5052641;28;20700;-82
2022/05/28 02:38:05;;;;;;;17.25;2.22;;;9.90;99.90;;;;;;5052200;28;20079;-82
2022/05/28 02:40:30;;;;;;;23.20;2.30;;;9.90;99.90;;;;;;5052960;28;20047;-83
2022/05/28 02:42:56;;;;;;;18.00;2.55;;;10.00;99.90;;;;;;5052288;28;20048;-82
2022/05/28 02:45:21;;;;;;;17.70;2.30;;;10.10;99.90;;;;;;5052369;28;20044;-83
2022/05/28 02:47:47;;;;;;;15.35;2.50;;;10.80;99.90;;;;;;5035304;28;20139;-83
2022/05/28 02:50:13;;;;;;;16.10;2.50;;;10.60;99.90;;;;;;5051559;28;20048;-82
2022/05/28 02:52:39;;;;;;;14.82;2.35;;;10.20;99.90;;;;;;5052711;28;20044;-83
2022/05/28 02:55:05;;;;;;;14.45;2.08;;;10.70;99.90;;;;;;5052382;28;20153;-82
2022/05/28 02:57:30;;;;;;;13.15;2.60;;;10.30;99.90;;;;;;5055058;28;20048;-82
2022/05/28 02:59:56;;;;;;;17.95;2.67;;;10.30;99.90;;;;;;5071841;28;20048;-83
2022/05/28 03:02:22;;;;;;;20.90;2.33;;;10.60;99.90;;;;;;5071926;28;20036;-83
2022/05/28 03:04:48;;;;;;;22.35;2.40;;;10.20;99.90;;;;;;5071444;28;20403;-83
2022/05/28 03:07:14;;;;;;;16.67;2.20;;;10.50;99.90;;;;;;5072484;28;20048;-82
2022/05/28 03:09:39;;;;;;;17.65;3.28;;;10.30;99.90;;;;;;5072531;28;20893;-83
2022/05/28 03:12:05;;;;;;;21.42;3.17;;;10.30;99.90;;;;;;5071675;28;20503;-82
2022/05/28 03:14:31;;;;;;;20.38;3.17;;;10.00;99.90;;;;;;5072062;28;20483;-83
2022/05/28 03:16:57;;;;;;;27.73;3.28;;;10.10;99.90;;;;;;5055970;28;20055;-83
2022/05/28 03:19:23;;;;;;;18.65;2.47;;;10.20;99.90;;;;;;5069691;28;20044;-83
2022/05/28 03:21:48;;;;;;;23.75;3.15;;;10.60;99.90;;;;;;5072269;28;20044;-82
2022/05/28 03:24:14;;;;;;;24.30;4.03;;;10.00;99.90;;;;;;5071985;28;20038;-83
2022/05/28 03:26:40;;;;;;;18.02;2.65;;;10.10;99.90;;;;;;5071485;28;20040;-82
2022/05/28 03:29:05;;;;;;;20.55;3.55;;;10.00;99.90;;;;;;5051647;28;20051;-83
2022/05/28 03:31:31;;;;;;;18.13;3.20;;;10.60;99.90;;;;;;5052424;28;20036;-83
2022/05/28 03:33:58;;;;;;;18.90;2.50;;;10.00;99.90;;;;;;5049965;28;20568;-83
2022/05/28 03:36:24;;;;;;;21.10;3.28;;;10.60;99.90;;;;;;5051341;28;20859;-83
2022/05/28 03:38:50;;;;;;;14.25;2.45;;;10.10;99.90;;;;;;5050621;28;20426;-83
2022/05/28 03:41:17;;;;;;;18.42;4.03;;;9.90;99.90;;;;;;5051350;28;20033;-83
2022/05/28 03:43:42;;;;;;;15.15;2.38;;;10.50;99.90;;;;;;5036008;28;20041;-83
2022/05/28 03:46:26;;;;;;;23.67;3.92;;;10.50;99.90;;;;;;5033825;28;20067;-84
2022/05/28 03:48:56;;;;;;;12.02;2.65;;;10.00;99.90;;;;;;5034440;28;20048;-84
2022/05/28 03:51:22;;;;;;;17.10;2.85;;;10.20;99.90;;;;;;5034792;28;20084;-84
2022/05/28 03:53:48;;;;;;;19.65;2.97;;;9.90;99.90;;;;;;5033798;28;20092;-84
2022/05/28 03:56:13;;;;;;;14.27;2.55;;;9.90;99.90;;;;;;5034778;28;20048;-83
2022/05/28 03:58:39;;;;;;;16.52;2.70;;;10.10;99.90;;;;;;5051365;28;20094;-83
2022/05/28 04:01:05;;;;;;;21.25;2.97;;;9.90;99.90;;;;;;5033687;28;20076;-83
2022/05/28 04:03:31;;;;;;;15.73;2.70;;;10.00;99.90;;;;;;5051098;28;20070;-83
2022/05/28 04:05:57;;;;;;;19.23;2.58;;;9.90;99.90;;;;;;5034482;28;20488;-83
2022/05/28 04:08:23;;;;;;;21.92;3.65;;;10.00;99.90;;;;;;5049855;28;20048;-84
2022/05/28 04:10:49;;;;;;;22.58;2.83;;;10.20;99.90;;;;;;5050862;28;20052;-83
2022/05/28 04:13:14;;;;;;;14.73;2.92;;;10.20;99.90;;;;;;5050722;28;20070;-82
2022/05/28 04:15:40;;;;;;;18.10;2.92;;;10.70;99.90;;;;;;5050581;28;20087;-83
2022/05/28 04:18:07;;;;;;;23.83;3.28;;;10.10;99.90;;;;;;5049711;28;20156;-83
2022/05/28 04:20:34;;;;;;;19.30;3.92;;;10.20;99.90;;;;;;5051484;28;20902;-82
2022/05/28 04:23:00;;;;;;;18.75;2.45;;;10.30;99.90;;;;;;5049874;28;20048;-83
2022/05/28 04:25:26;;;;;;;19.27;2.53;;;10.30;99.90;;;;;;5051063;28;20178;-82
2022/05/28 04:27:52;;;;;;;20.15;3.00;;;10.40;99.90;;;;;;5050375;28;20122;-83
2022/05/28 04:30:17;;;;;;;18.73;2.15;;;10.80;99.90;;;;;;5050366;28;20123;-83
2022/05/28 04:32:43;;;;;;;17.67;3.03;;;11.00;99.90;;;;;;5050194;28;20047;-83
2022/05/28 04:35:09;;;;;;;17.80;2.72;;;10.50;99.90;;;;;;5049002;28;20044;-83
2022/05/28 04:37:35;;;;;;;26.42;3.05;;;10.50;99.90;;;;;;5051086;28;20072;-83
2022/05/28 04:40:01;;;;;;;21.17;2.70;;;10.70;99.90;;;;;;5050390;28;20099;-83
2022/05/28 04:42:26;;;;;;;25.40;3.28;;;10.50;99.90;;;;;;5049982;28;20049;-83
2022/05/28 04:44:52;;;;;;;12.75;2.55;;;10.60;99.90;;;;;;5050469;28;20450;-83
2022/05/28 04:47:18;;;;;;;16.42;2.90;;;10.80;99.90;;;;;;5049982;28;20048;-83
2022/05/28 04:49:43;;;;;;;20.95;2.83;;;11.00;99.90;;;;;;5049649;28;20595;-82
2022/05/28 04:52:09;;;;;;;16.17;2.85;;;11.00;99.90;;;;;;5050130;28;20052;-83
2022/05/28 04:54:35;;;;;;;16.20;2.78;;;11.10;99.90;;;;;;5050001;28;20052;-82
2022/05/28 04:57:00;;;;;;;26.20;3.95;;;11.10;99.90;;;;;;5059064;28;20056;-83
2022/05/28 04:59:26;;;;;;;16.65;2.92;;;11.30;99.90;;;;;;5049603;28;20040;-83
2022/05/28 05:01:52;;;;;;;23.80;3.15;;;11.10;99.90;;;;;;5050454;28;20044;-83
2022/05/28 05:04:18;;;;;;;20.45;2.92;;;11.00;99.90;;;;;;5048867;28;20059;-83
2022/05/28 05:06:43;;;;;;;22.38;3.20;;;11.70;99.90;;;;;;5049843;28;20053;-83
2022/05/28 05:09:09;;;;;;;24.15;3.20;;;11.10;99.90;;;;;;5049718;28;20135;-83
2022/05/28 05:11:35;;;;;;;18.20;3.38;;;11.10;99.90;;;;;;5049380;28;20052;-83
2022/05/28 05:14:00;;;;;;;17.65;3.00;;;11.20;99.90;;;;;;5049993;28;20044;-83
2022/05/28 05:16:26;;;;;;;20.02;2.55;;;11.20;99.90;;;;;;5050238;28;20044;-83
2022/05/28 05:18:52;;;;;;;17.48;2.72;;;11.90;99.90;;;;;;5048306;28;20480;-83
2022/05/28 05:21:17;;;;;;;20.58;3.13;;;11.40;99.90;;;;;;5050556;28;20032;-83
2022/05/28 05:23:43;;;;;;;17.17;3.03;;;11.60;99.90;;;;;;5049766;28;20476;-82
2022/05/28 05:26:15;;;;;;;14.10;2.38;;;11.90;99.90;;;;;;5049121;28;20048;-82
2022/05/28 05:28:41;;;;;;;15.10;2.88;;;11.80;99.90;;;;;;5061804;28;20145;-82
2022/05/28 05:31:07;;;;;;;17.65;3.22;;;11.90;99.90;;;;;;5049338;28;20516;-83
2022/05/28 05:33:33;;;;;;;22.00;3.85;;;12.00;99.90;;;;;;5031905;28;20056;-83
2022/05/28 05:35:58;;;;;;;28.92;3.58;;;12.10;99.90;;;;;;5049789;28;20044;-84
2022/05/28 05:38:24;;;;;;;20.90;3.30;;;12.10;99.90;;;;;;5048793;28;20040;-84
2022/05/28 05:40:52;;;;;;;17.88;3.03;;;12.00;99.90;;;;;;5050903;28;20090;-82
2022/05/28 05:43:18;;;;;;;16.88;3.67;;;12.10;99.90;;;;;;5050958;28;20377;-83
2022/05/28 05:45:51;;;;;;;22.35;3.85;;;12.00;99.90;;;;;;5053692;28;20419;-83
2022/05/28 05:48:17;;;;;;;17.30;3.50;;;12.00;99.90;;;;;;5052748;28;20098;-83
2022/05/28 05:50:43;;;;;;;16.40;2.63;;;11.80;99.90;;;;;;5054358;28;20045;-83
2022/05/28 05:53:08;;;;;;;22.63;3.45;;;11.80;99.90;;;;;;5036252;28;20514;-82
2022/05/28 05:55:34;;;;;;;19.05;2.88;;;11.70;99.90;;;;;;5054289;28;20459;-83
2022/05/28 05:58:00;;;;;;;24.88;3.72;;;11.90;99.90;;;;;;5053523;28;20045;-83
2022/05/28 06:00:26;;;;;;;22.55;2.90;;;11.70;99.90;;;;;;5036777;28;20054;-83
2022/05/28 06:02:51;;;;;;;26.77;3.47;;;11.70;99.90;;;;;;5036514;28;20044;-83
2022/05/28 06:05:17;;;;;;;13.98;3.00;;;11.80;99.90;;;;;;5053358;28;20040;-82
2022/05/28 06:07:43;;;;;;;18.10;2.95;;;12.00;99.90;;;;;;5036497;28;20147;-83
2022/05/28 06:10:10;;;;;;;23.17;3.78;;;12.10;99.90;;;;;;5052999;28;20040;-83
2022/05/28 06:12:36;;;;;;;19.70;3.35;;;12.20;99.90;;;;;;5053967;28;20130;-82
2022/05/28 06:15:03;;;;;;;18.60;3.58;;;12.00;99.90;;;;;;5052393;28;20136;-82
2022/05/28 06:17:28;;;;;;;21.80;3.60;;;12.00;99.90;;;;;;5037083;28;20093;-82
2022/05/28 06:19:54;;;;;;;22.35;3.45;;;12.10;99.90;;;;;;5053507;28;20040;-84
2022/05/28 06:22:20;;;;;;;19.60;3.30;;;12.30;99.90;;;;;;5035395;28;20408;-84
2022/05/28 06:24:46;;;;;;;18.55;3.65;;;12.40;99.90;;;;;;5053521;28;20036;-84
2022/05/28 06:27:13;;;;;;;16.17;2.72;;;12.50;99.90;;;;;;5056601;28;20056;-84
2022/05/28 06:29:39;;;;;;;17.70;3.20;;;12.50;99.90;;;;;;5072025;28;20036;-82
2022/05/28 06:32:05;;;;;;;14.55;2.65;;;12.10;99.90;;;;;;5071980;28;20407;-83
2022/05/28 06:34:31;;;;;;;21.15;2.40;;;12.00;99.90;;;;;;5054443;28;20047;-83
2022/05/28 06:36:57;;;;;;;18.98;3.17;;;12.20;99.90;;;;;;5072984;28;20055;-83
2022/05/28 06:39:22;;;;;;;16.58;2.90;;;12.30;99.90;;;;;;5049609;28;20053;-83
2022/05/28 06:41:48;;;;;;;17.20;2.88;;;12.20;99.90;;;;;;5067371;28;20110;-81
2022/05/28 06:44:14;;;;;;;14.63;2.63;;;12.40;99.90;;;;;;5053403;28;20817;-82
2022/05/28 06:46:40;;;;;;;17.15;2.85;;;12.50;99.90;;;;;;5069790;28;20051;-82
2022/05/28 06:49:05;;;;;;;19.83;2.63;;;12.60;99.90;;;;;;5052098;28;20560;-82
2022/05/28 06:51:32;;;;;;;12.75;2.92;;;12.70;99.90;;;;;;5069916;28;20472;-82
2022/05/28 06:53:58;;;;;;;15.95;2.47;;;12.80;99.90;;;;;;5070003;28;20055;-82
2022/05/28 06:56:23;;;;;;;18.88;3.03;;;13.00;99.90;;;;;;5080766;28;20085;-82
2022/05/28 06:58:49;;;;;;;15.77;2.53;;;13.10;99.90;;;;;;5069182;28;20059;-82
2022/05/28 07:01:16;;;;;;;21.40;2.72;;;13.10;99.90;;;;;;5047478;28;20208;-82
2022/05/28 07:03:43;;;;;;;13.23;2.30;;;13.00;99.90;;;;;;5064462;28;20071;-82
2022/05/28 07:06:10;;;;;;;21.67;3.17;;;12.90;99.90;;;;;;5070510;28;20036;-84
2022/05/28 07:08:36;;;;;;;20.92;3.00;;;13.10;99.90;;;;;;5072179;28;20076;-83
2022/05/28 07:11:05;;;;;;;15.65;3.25;;;12.90;99.90;;;;;;5054207;28;20444;-82
2022/05/28 07:13:31;;;;;;;23.15;2.88;;;13.00;99.90;;;;;;5072079;28;20048;-83
2022/05/28 07:15:57;;;;;;;21.15;3.35;;;13.00;99.90;;;;;;5072231;28;20040;-83
2022/05/28 07:18:23;;;;;;;20.20;3.60;;;12.80;99.90;;;;;;5070178;28;20461;-82
2022/05/28 07:20:49;;;;;;;24.67;4.10;;;12.70;99.90;;;;;;5071846;28;20044;-82
2022/05/28 07:23:20;;;;;;;16.85;3.17;;;12.70;99.90;;;;;;5071767;28;20136;-82
2022/05/28 07:25:46;;;;;;;17.65;3.22;;;12.70;99.90;;;;;;5071245;28;20191;-82
2022/05/28 07:28:25;;;;;;;23.33;3.95;;;12.80;99.90;;;;;;5063533;28;20106;-83
2022/05/28 07:31:00;;;;;;;22.05;3.95;;;13.10;99.90;;;;;;5048356;28;20052;-82
2022/05/28 07:33:29;;;;;;;25.15;3.00;;;13.20;99.90;;;;;;5068547;28;20182;-83
2022/05/28 07:35:56;;;;;;;15.30;3.08;;;13.20;99.90;;;;;;5051954;28;20056;-82
2022/05/28 07:38:23;;;;;;;26.92;3.25;;;13.10;99.90;;;;;;5050092;28;20547;-82
2022/05/28 07:40:50;;;;;;;16.35;3.00;;;13.00;99.90;;;;;;5051793;28;20047;-82
2022/05/28 07:43:16;;;;;;;19.48;2.72;;;12.90;99.90;;;;;;5050900;28;20052;-83
2022/05/28 07:45:43;;;;;;;19.98;2.85;;;12.90;99.90;;;;;;5051013;28;20044;-82
2022/05/28 07:48:10;;;;;;;18.83;3.30;;;13.30;99.90;;;;;;5050201;28;20486;-83
2022/05/28 07:50:36;;;;;;;18.38;3.33;;;13.60;99.90;;;;;;5069575;28;20044;-83
2022/05/28 07:53:02;;;;;;;20.45;3.40;;;13.70;99.90;;;;;;5033747;28;20419;-83
2022/05/28 07:55:29;;;;;;;18.30;2.97;;;13.50;99.90;;;;;;5051149;28;20098;-82
2022/05/28 07:57:55;;;;;;;14.80;2.78;;;13.40;99.90;;;;;;5051277;28;20045;-83
2022/05/28 08:00:21;;;;;;;17.27;2.92;;;13.30;99.90;;;;;;5050307;28;20052;-82
2022/05/28 08:02:47;;;;;;;18.42;2.95;;;13.30;99.90;;;;;;5050597;28;20409;-82
2022/05/28 08:05:13;;;;;;;18.38;2.72;;;13.40;99.90;;;;;;5051082;28;20090;-82
2022/05/28 08:07:38;;;;;;;19.27;2.90;;;13.50;99.90;;;;;;5049544;28;20377;-82
2022/05/28 08:10:05;;;;;;;18.65;2.83;;;13.60;99.90;;;;;;5050804;28;20041;-82
2022/05/28 08:12:31;;;;;;;21.27;3.05;;;13.60;99.90;;;;;;5050924;28;20044;-82
2022/05/28 08:14:58;;;;;;;19.02;2.88;;;13.60;99.90;;;;;;5049989;28;20098;-83
2022/05/28 08:17:24;;;;;;;18.65;2.78;;;13.60;99.90;;;;;;5050710;28;20049;-82
2022/05/28 08:19:51;;;;;;;17.20;2.55;;;13.50;99.90;;;;;;5049753;28;20135;-82
2022/05/28 08:25:01;;;;;;;18.45;3.25;;;13.60;99.90;;;;;;5050452;28;20060;-82
2022/05/28 08:27:27;;;;;;;15.13;2.70;;;13.60;99.90;;;;;;5049433;28;20040;-82
2022/05/28 08:29:52;;;;;;;20.08;3.80;;;13.70;99.90;;;;;;5050830;28;20053;-82
2022/05/28 08:32:18;;;;;;;26.73;3.83;;;13.70;99.90;;;;;;5050494;28;20044;-82
2022/05/28 08:34:45;;;;;;;18.05;2.75;;;13.90;99.90;;;;;;5066633;28;20049;-82
2022/05/28 08:37:11;;;;;;;20.13;2.58;;;14.00;99.90;;;;;;5050177;28;20053;-81
2022/05/28 08:39:38;;;;;;;13.85;2.45;;;13.90;99.90;;;;;;5050260;28;20054;-82
2022/05/28 08:42:05;;;;;;;13.90;2.53;;;14.00;99.90;;;;;;5049504;28;20084;-82
2022/05/28 08:44:35;;;;;;;17.17;2.30;;;14.10;99.90;;;;;;5050098;28;20044;-81
2022/05/28 08:47:14;;;;;;;15.27;2.53;;;14.30;99.90;;;;;;5050443;28;20051;-82
2022/05/28 08:49:39;;;;;;;12.57;2.78;;;14.30;99.90;;;;;;5049127;28;20044;-81
2022/05/28 08:52:30;;;;;;;17.05;2.58;;;14.40;99.90;;;;;;5049737;28;20098;-82
2022/05/28 08:55:04;;;;;;;16.00;2.65;;;14.20;99.90;;;;;;5050083;28;20050;-82
2022/05/28 08:57:46;;;;;;;19.02;3.10;;;14.40;99.90;;;;;;5049910;28;20045;-82
2022/05/28 09:00:17;;;;;;;17.13;3.05;;;14.40;99.90;;;;;;5049954;28;20052;-82
2022/05/28 09:02:50;;;;;;;17.63;2.80;;;14.10;99.90;;;;;;5049370;28;20036;-82
2022/05/28 09:05:28;;;;;;;19.17;2.95;;;13.80;99.90;;;;;;5049444;28;20040;-82
2022/05/28 09:07:59;;;;;;;14.18;2.70;;;13.80;99.90;;;;;;5067888;28;20116;-82
2022/05/28 09:10:29;;;;;;;13.43;2.63;;;13.70;99.90;;;;;;5048657;28;20048;-82
2022/05/28 09:13:03;;;;;;;21.02;3.25;;;13.60;99.90;;;;;;5049525;28;20059;-82
2022/05/28 09:15:31;;;;;;;23.10;2.83;;;13.40;99.90;;;;;;5050319;28;20128;-82
2022/05/28 09:17:57;;;;;;;16.48;2.80;;;13.40;99.90;;;;;;5047269;28;20044;-82
2022/05/28 09:20:35;;;;;;;16.65;3.05;;;13.40;99.90;;;;;;5049571;28;20060;-82
2022/05/28 09:23:00;;;;;;;17.02;3.80;;;13.40;99.90;;;;;;5049894;28;20048;-81
2022/05/28 09:25:31;;;;;;;16.63;2.97;;;13.50;99.90;;;;;;5049405;28;20551;-82
2022/05/28 09:28:06;;;;;;;20.75;2.78;;;13.70;99.90;;;;;;5049529;28;20048;-82
2022/05/28 09:30:31;;;;;;;16.27;2.75;;;14.00;99.90;;;;;;5048893;28;20048;-82
2022/05/28 09:33:07;;;;;;;23.42;3.40;;;14.20;99.90;;;;;;5067227;28;20105;-82
2022/05/28 09:35:52;;;;;;;14.95;3.08;;;14.30;99.90;;;;;;5050045;28;20120;-83
2022/05/28 09:38:36;;;;;;;23.00;3.60;;;14.10;99.90;;;;;;5048551;28;20040;-82
2022/05/28 09:41:17;;;;;;;20.58;2.92;;;13.90;99.90;;;;;;5067891;28;20044;-82
2022/05/28 09:43:59;;;;;;;14.07;3.05;;;13.70;99.90;;;;;;5049795;28;20063;-82
2022/05/28 09:46:36;;;;;;;17.35;2.95;;;14.00;99.90;;;;;;5048625;28;20044;-82
2022/05/28 09:49:05;;;;;;;22.95;2.97;;;14.30;99.90;;;;;;5048480;28;20044;-82
2022/05/28 09:51:34;;;;;;;16.17;2.75;;;14.50;99.90;;;;;;5048946;28;20420;-83
2022/05/28 09:54:16;;;;;;;15.60;2.40;;;14.60;99.90;;;;;;5045907;28;20049;-82
2022/05/28 09:56:45;;;;;;;11.48;2.53;;;14.90;99.90;;;;;;5046392;28;20128;-82
2022/05/28 09:59:30;;;;;;;16.42;2.30;;;15.10;99.90;;;;;;5046618;28;20068;-82
2022/05/28 10:01:59;;;;;;;10.20;1.80;;;15.00;99.90;;;;;;5047389;28;20053;-82
2022/05/28 10:04:29;;;;;;;13.30;1.90;;;14.80;99.90;;;;;;5045188;28;20082;-83
2022/05/28 10:06:58;;;;;;;17.50;2.20;;;14.90;99.90;;;;;;5045329;28;20519;-82
2022/05/28 10:09:27;;;;;;;14.23;2.55;;;15.00;99.90;;;;;;5045859;28;20114;-82
2022/05/28 10:11:56;;;;;;;17.48;2.33;;;15.00;99.90;;;;;;5045764;28;20041;-82
2022/05/28 10:14:24;;;;;;;15.75;1.90;;;15.00;99.90;;;;;;5046410;28;20057;-83
2022/05/28 10:16:59;;;;;;;12.82;2.55;;;14.90;99.90;;;;;;5047093;28;20048;-82
2022/05/28 10:19:38;;;;;;;17.30;2.30;;;14.90;99.90;;;;;;5044689;28;20405;-82
2022/05/28 10:22:10;;;;;;;13.35;2.63;;;15.00;99.90;;;;;;5045539;28;20498;-82
2022/05/28 10:24:44;;;;;;;12.85;2.60;;;14.70;99.90;;;;;;5046080;28;20064;-82
2022/05/28 10:27:28;;;;;;;11.48;2.08;;;14.30;99.90;;;;;;5044342;28;20099;-82
2022/05/28 10:29:57;;;;;;;12.50;2.10;;;14.20;99.90;;;;;;5047860;28;20049;-82
2022/05/28 10:32:43;;;;;;;11.68;1.75;;;14.20;99.90;;;;;;5050683;28;20106;-82
2022/05/28 10:35:16;;;;;;;11.30;1.45;;;14.20;99.90;;;;;;5048247;28;20408;-83
2022/05/28 10:37:42;;;;;;;8.45;1.95;;;14.50;99.90;;;;;;5050076;28;20060;-82
2022/05/28 10:40:16;;;;;;;12.43;2.00;;;14.80;99.90;;;;;;5049123;28;20508;-82
2022/05/28 10:42:43;;;;;;;10.88;1.70;;;15.00;99.90;;;;;;5048850;28;20087;-82
2022/05/28 10:45:09;;;;;;;9.45;1.70;;;15.30;99.90;;;;;;5050613;28;20051;-82
2022/05/28 10:47:43;;;;;;;10.07;1.95;;;15.50;99.90;;;;;;5051165;28;20044;-82
2022/05/28 10:50:33;;;;;;;14.73;1.92;;;15.40;99.90;;;;;;5048359;28;20083;-82
2022/05/28 10:53:12;;;;;;;11.10;1.75;;;15.20;99.90;;;;;;5049263;28;20132;-82
2022/05/28 10:55:56;;;;;;;8.20;1.48;;;15.10;99.90;;;;;;5048046;28;20053;-82
2022/05/28 10:58:31;;;;;;;8.82;1.60;;;14.90;99.90;;;;;;5049817;28;20044;-82
2022/05/28 11:01:05;;;;;;;12.30;1.75;;;14.70;99.90;;;;;;5049008;28;20053;-82
2022/05/28 11:03:50;;;;;;;12.80;1.75;;;14.90;99.90;;;;;;5047741;28;20524;-82
2022/05/28 11:06:22;;;;;;;10.55;1.80;;;15.00;99.90;;;;;;5048811;28;20602;-82
2022/05/28 11:09:09;;;;;;;11.18;1.75;;;15.00;99.90;;;;;;5048298;28;20099;-82
2022/05/28 11:11:53;;;;;;;10.30;1.38;;;15.00;99.90;;;;;;5049211;28;20069;-82
2022/05/28 11:14:40;;;;;;;9.73;1.60;;;14.80;99.90;;;;;;5048834;28;20059;-82
2022/05/28 11:17:21;;;;;;;14.85;2.20;;;14.60;99.90;;;;;;5032174;28;20052;-82
2022/05/28 11:19:53;;;;;;;14.68;2.20;;;14.50;99.90;;;;;;5048057;28;20049;-82
2022/05/28 11:22:25;;;;;;;14.98;2.33;;;14.80;99.90;;;;;;5048491;28;20099;-82
2022/05/28 11:24:58;;;;;;;13.68;2.40;;;15.10;99.90;;;;;;5047679;28;20064;-82
2022/05/28 11:27:47;;;;;;;15.60;2.10;;;15.40;99.90;;;;;;5049123;28;20056;-82
2022/05/28 11:30:21;;;;;;;11.68;1.80;;;15.20;99.90;;;;;;5064007;28;20092;-82
2022/05/28 11:33:00;;;;;;;10.35;2.25;;;15.30;99.90;;;;;;5064654;28;20119;-82
2022/05/28 11:35:45;;;;;;;14.00;2.00;;;15.30;99.90;;;;;;5065081;28;20096;-81
2022/05/28 11:38:40;;;;;;;16.02;1.73;;;15.20;99.90;;;;;;5048620;28;20296;-82
2022/05/28 11:41:15;;;;;;;11.27;1.90;;;15.10;99.90;;;;;;5063630;28;20045;-82
2022/05/28 11:44:03;;;;;;;11.25;2.00;;;14.90;99.90;;;;;;5064677;28;20057;-83
2022/05/28 11:46:46;;;;;;;16.98;2.05;;;14.90;99.90;;;;;;5064678;28;20041;-83
2022/05/28 11:52:34;;;;;;;15.40;2.10;;;14.80;99.90;;;;;;5049754;28;20673;-83
2022/05/28 11:55:10;;;;;;;11.07;2.77;;;14.70;99.90;;;;;;5068908;28;20438;-82
2022/05/28 11:57:42;;;;;;;18.33;2.50;;;14.60;99.90;;;;;;5068382;28;20084;-82
2022/05/28 12:00:11;;;;;;;18.27;2.28;;;14.30;99.90;;;;;;5067129;28;20044;-82
2022/05/28 12:02:45;;;;;;;17.92;2.50;;;14.20;99.90;;;;;;5034440;28;20044;-83
2022/05/28 12:05:17;;;;;;;16.13;2.65;;;14.30;99.90;;;;;;5066672;28;20557;-83
2022/05/28 12:07:45;;;;;;;21.15;2.28;;;14.30;99.90;;;;;;5068066;28;20175;-82
2022/05/28 12:10:27;;;;;;;14.10;2.75;;;14.30;99.90;;;;;;5034207;28;20048;-82
2022/05/28 12:12:58;;;;;;;12.05;2.40;;;14.30;99.90;;;;;;5068618;28;20045;-82
2022/05/28 12:15:28;;;;;;;16.00;2.00;;;14.40;99.90;;;;;;5067196;28;20074;-82
2022/05/28 12:18:10;;;;;;;16.02;2.80;;;14.90;99.90;;;;;;5068030;28;20036;-83
2022/05/28 12:20:51;;;;;;;11.90;2.47;;;15.00;99.90;;;;;;5068287;28;20053;-83
2022/05/28 12:23:29;;;;;;;14.45;1.83;;;15.20;99.90;;;;;;5033917;28;20109;-83
2022/05/28 12:25:55;;;;;;;15.88;2.70;;;15.30;99.90;;;;;;5051300;28;20048;-82
2022/05/28 12:28:29;;;;;;;12.25;2.10;;;15.20;99.90;;;;;;5049351;28;20518;-82
2022/05/28 12:30:57;;;;;;;14.05;2.60;;;15.10;99.90;;;;;;5034328;28;20048;-83
2022/05/28 12:33:31;;;;;;;16.40;2.50;;;15.20;99.90;;;;;;5048951;28;20052;-82
2022/05/28 12:36:16;;;;;;;15.95;2.50;;;15.00;99.90;;;;;;5050403;28;20049;-82
2022/05/28 12:38:46;;;;;;;15.77;2.83;;;15.00;99.90;;;;;;5033608;28;20131;-82
2022/05/28 12:41:19;;;;;;;16.60;2.78;;;14.80;99.90;;;;;;5032798;28;20045;-82
2022/05/28 12:43:53;;;;;;;17.20;2.80;;;14.70;99.90;;;;;;5033954;28;20036;-82
2022/05/28 12:46:35;;;;;;;15.32;2.60;;;14.80;99.90;;;;;;5050240;28;20447;-82
2022/05/28 12:49:10;;;;;;;17.98;2.33;;;15.00;99.90;;;;;;5031607;28;20043;-82
2022/05/28 12:51:50;;;;;;;15.23;2.13;;;15.00;99.90;;;;;;5050835;28;20063;-83
2022/05/28 12:54:29;;;;;;;14.75;2.10;;;15.00;99.90;;;;;;5048831;28;20075;-82
2022/05/28 12:57:25;;;;;;;14.80;2.90;;;14.80;99.90;;;;;;5050472;28;20037;-83